• Join FlightAware (Why Join?)
  • Login
  • US Flag 
11:30PM EDT


 

Airport Tracker/Info


-or-


 

Live Flight TrackerFlight Track Log ✈ SWA265 ✈ 22-Apr-2013 ✈ KLAS - KBWI

Flight Track Log - Related Links

Times and Time Zones

All times are in EDT time to prevent confusion due to time zone crossing. See the SWA265 flight status page for this flight to view local times or setup timezone preferences in your user account.

Time Position Orientation Groundspeed Altitude Reporting Facility
EDT Latitude Longitude Course Direction KTS MPH feet Rate Location/Type
10:58AM 36.0753 -115.1739 273° West 176 203 3,100  Level Los Angeles Center
10:58AM 36.0761 -115.1975 273° West 185 213 3,700 1,800 Climbing Los Angeles Center
10:59AM 36.0767 -115.2542 271° West 205 236 5,500 2,160 Climbing Los Angeles Center
11:00AM 36.1422 -115.2953 333° Northwest 239 275 8,200 2,220 Climbing Los Angeles Center
11:01AM 36.1861 -115.2172 55° Northeast 294 338 10,100 1,560 Climbing Los Angeles Center
11:02AM 36.1969 -115.1078 83° East 327 376 11,500 1,800 Climbing Los Angeles Center
11:03AM 36.1981 -114.9789 89° East 369 425 13,900 2,460 Climbing Los Angeles Center
11:04AM 36.1997 -114.8431 89° East 387 445 16,600 2,460 Climbing Los Angeles Center
11:05AM 36.2000 -114.7008 90° East 406 467 19,100 2,520 Climbing Los Angeles Center
11:06AM 36.1956 -114.5233 92° East 426 490 21,900 1,920 Climbing Los Angeles Center
11:07AM 36.1947 -114.3706 90° East 442 509 23,100 1,440 Climbing Los Angeles Center
11:08AM 36.1944 -114.2169 90° East 446 513 24,900 1,680 Climbing Los Angeles Center
11:09AM 36.2142 -114.0603 81° East 458 527 26,600 1,680 Climbing Los Angeles Center
11:10AM 36.2347 -113.9006 81° East 468 539 28,400 1,620 Climbing Los Angeles Center
11:11AM 36.2522 -113.7375 82° East 476 548 30,000 1,740 Climbing Los Angeles Center
11:12AM 36.2753 -113.5417 82° East 481 554 32,000 1,620 Climbing Los Angeles Center
11:13AM 36.3108 -113.3822 74° East 486 559 33,400 1,380 Climbing Los Angeles Center
11:14AM 36.3508 -113.2172 73° East 474 545 34,900 1,320 Climbing Los Angeles Center
11:15AM 36.3886 -113.0611 73° East 474 545 36,200 960 Climbing Los Angeles Center
11:16AM 36.4264 -112.9061 73° East 473 544 37,000 360 Climbing Los Angeles Center
11:17AM 36.4639 -112.7508 73° East 473 544 37,000  Level Los Angeles Center
11:18AM 36.5019 -112.5947 73° East 474 545 37,000  Level Los Angeles Center
11:19AM 36.5383 -112.4392 74° East 473 544 37,000  Level Los Angeles Center
11:21AM 36.5833 -112.2519 73° East 473 544 37,000  Level Los Angeles Center
11:22AM 36.6206 -112.0964 73° East 472 543 37,000  Level Los Angeles Center
11:22AM 36.6353 -112.0328 74° East 473 544 37,000  Level Denver Center
11:23AM 36.6731 -111.8772 73° East 472 543 37,000  Level Denver Center
11:24AM 36.7081 -111.7206 74° East 472 543 37,000  Level Denver Center
11:25AM 36.7458 -111.5639 73° East 474 545 37,000  Level Denver Center
11:26AM 36.7833 -111.4042 74° East 478 550 37,000  Level Denver Center
11:27AM 36.8269 -111.2136 74° East 479 551 37,000  Level Denver Center
11:28AM 36.8594 -111.0556 76° East 475 547 37,000  Level Denver Center
11:29AM 36.8961 -110.8942 74° East 484 557 37,000  Level Denver Center
11:30AM 36.9322 -110.7333 74° East 484 557 37,000  Level Denver Center
11:31AM 36.9683 -110.5697 75° East 489 563 37,000  Level Denver Center
11:32AM 37.0106 -110.3742 75° East 486 559 37,000  Level Denver Center
11:33AM 37.0464 -110.2097 75° East 491 565 37,000  Level Denver Center
11:34AM 37.0831 -110.0417 75° East 490 564 37,000  Level Denver Center
11:35AM 37.1164 -109.8836 75° East 490 564 37,000  Level Denver Center
11:36AM 37.1547 -109.7003 75° East 488 562 37,000  Level Denver Center
11:37AM 37.1881 -109.5439 75° East 485 558 37,000  Level Denver Center
11:38AM 37.2264 -109.3617 75° East 484 557 37,000  Level Denver Center
11:40AM 37.2594 -109.2028 75° East 489 563 37,000  Level Denver Center
11:41AM 37.2972 -109.0158 76° East 492 566 37,000  Level Denver Center
11:42AM 37.3308 -108.8553 75° East 495 570 37,000  Level Denver Center
11:43AM 37.3633 -108.6939 76° East 495 570 37,000  Level Denver Center
11:44AM 37.4014 -108.5022 76° East 502 578 37,000  Level Denver Center
11:45AM 37.4344 -108.3408 75° East 500 575 37,000  Level Denver Center
11:46AM 37.4711 -108.1500 76° East 503 579 37,000  Level Denver Center
11:47AM 37.5139 -107.9322 76° East 500 575 37,000  Level Denver Center
11:48AM 37.5456 -107.7678 76° East 504 580 37,000  Level Denver Center
11:49AM 37.5772 -107.6031 76° East 505 581 37,000  Level Denver Center
11:50AM 37.6147 -107.4125 76° East 504 580 37,000  Level Denver Center
11:51AM 37.6453 -107.2486 77° East 501 577 37,000  Level Denver Center
11:52AM 37.6806 -107.0558 77° East 505 581 37,000  Level Denver Center
11:53AM 37.7114 -106.8917 77° East 503 579 37,000  Level Denver Center
11:54AM 37.7467 -106.6992 77° East 505 581 37,000  Level Denver Center
11:55AM 37.7764 -106.5347 77° East 503 579 37,000  Level Denver Center
11:56AM 37.8117 -106.3422 77° East 503 579 37,000  Level Denver Center
11:57AM 37.8400 -106.1706 78° East 505 581 37,000  Level Denver Center
11:58AM 37.8717 -106.0056 76° East 502 578 37,000  Level Denver Center
11:59AM 37.9053 -105.8103 78° East 507 583 37,000  Level Denver Center
12:00PM 37.9408 -105.6133 77° East 512 589 37,000  Level Denver Center
12:01PM 37.9692 -105.4447 78° East 513 590 37,100  Climbing Denver Center
12:03PM 38.0025 -105.2492 78° East 508 585 37,000 -60 Descending Denver Center
12:04PM 38.0311 -105.0806 78° East 509 586 37,000  Level Denver Center
12:05PM 38.0592 -104.9128 78° East 508 585 37,000  Level Denver Center
12:06PM 38.0908 -104.7164 78° East 507 583 37,000  Level Denver Center
12:07PM 38.1183 -104.5469 78° East 508 585 37,000  Level Denver Center
12:08PM 38.1506 -104.3492 78° East 509 586 37,000  Level Denver Center
12:09PM 38.1789 -104.1772 78° East 515 593 37,000  Level Denver Center
12:10PM 38.2103 -103.9769 79° East 516 594 37,000  Level Denver Center
12:11PM 38.2372 -103.8044 79° East 516 594 37,000  Level Denver Center
12:12PM 38.2639 -103.6328 79° East 515 593 37,000  Level Denver Center
12:13PM 38.2950 -103.4317 79° East 516 594 37,000  Level Denver Center
12:14PM 38.3236 -103.2483 79° East 516 594 37,000  Level Denver Center
12:15PM 38.3497 -103.0750 79° East 520 598 37,000  Level Denver Center
12:16PM 38.3800 -102.8731 79° East 520 598 37,000  Level Denver Center
12:17PM 38.4042 -102.7011 80° East 516 594 37,000  Level Denver Center
12:18PM 38.4333 -102.4983 80° East 519 597 37,000  Level Denver Center
12:19PM 38.4589 -102.3239 79° East 524 603 37,000  Level Denver Center
12:20PM 38.4872 -102.1225 80° East 517 595 37,000  Level Denver Center
12:21PM 38.5117 -101.9483 80° East 520 598 37,000  Level Denver Center
12:22PM 38.5403 -101.7450 80° East 520 598 37,000  Level Denver Center
12:23PM 38.5644 -101.5717 80° East 518 596 37,000  Level Denver Center
12:24PM 38.5917 -101.3686 80° East 519 597 37,000  Level Denver Center
12:25PM 38.6144 -101.1964 80° East 515 593 37,000  Level Denver Center
12:26PM 38.6369 -101.0219 81° East 518 596 37,000  Level Denver Center
12:27PM 38.6633 -100.8197 80° East 515 593 37,000  Level Denver Center
12:28PM 38.6861 -100.6450 80° East 517 595 37,000  Level Denver Center
12:29PM 38.7119 -100.4397 81° East 521 600 37,000  Level Denver Center
12:30PM 38.7333 -100.2647 81° East 520 598 37,000  Level Denver Center
12:31PM 38.7678 -100.0656 77° East 518 596 37,000  Level Denver Center
12:32PM 38.8014 -99.8986 75° East 508 585 37,000  Level Denver Center
12:34PM 38.8408 -99.7044 75° East 506 582 37,000  Level Denver Center
12:35PM 38.8739 -99.5361 76° East 506 582 37,000  Level Denver Center
12:36PM 38.9133 -99.3408 75° East 505 581 37,000  Level Denver Center
12:37PM 38.9475 -99.1728 75° East 509 586 37,000  Level Denver Center
12:38PM 38.9822 -99.0072 75° East 504 580 37,000  Level Denver Center
12:39PM 39.0161 -98.8433 75° East 503 579 37,000  Level Kansas City Center
12:40PM 39.0589 -98.6347 75° East 503 579 37,000  Level Kansas City Center
12:41PM 39.0917 -98.4583 76° East 506 582 37,000  Level Kansas City Center
12:42PM 39.1231 -98.2836 77° East 503 579 37,000 120 Level Kansas City Center
12:43PM 39.1431 -98.1036 82° East 507 583 37,300 300 Climbing Kansas City Center
12:44PM 39.1597 -97.9194 83° East 511 588 37,700 480 Climbing Kansas City Center
12:45PM 39.1811 -97.7189 82° East 517 595 38,400 600 Climbing Kansas City Center
12:46PM 39.2031 -97.5106 82° East 523 602 39,000 240 Climbing Kansas City Center
12:47PM 39.2211 -97.3347 82° East 519 597 39,000  Level Kansas City Center
12:48PM 39.2381 -97.1600 83° East 514 592 39,000  Level Kansas City Center
12:49PM 39.2578 -96.9581 83° East 509 586 39,000  Level Kansas City Center
12:50PM 39.2750 -96.7864 83° East 506 582 39,000  Level Kansas City Center
12:51PM 39.2939 -96.5886 83° East 498 573 39,000  Level Kansas City Center
12:52PM 39.3086 -96.4300 83° East 497 572 39,000  Level Kansas City Center
12:53PM 39.3292 -96.2153 83° East 503 579 39,000  Level Kansas City Center
12:54PM 39.3442 -96.0464 83° East 504 580 39,000  Level Kansas City Center
12:55PM 39.3617 -95.8450 84° East 502 578 39,000  Level Kansas City Center
12:56PM 39.3781 -95.6711 83° East 506 582 39,000  Level Kansas City Center
12:57PM 39.3922 -95.4975 84° East 505 581 39,000  Level Kansas City Center
12:58PM 39.4100 -95.2822 84° East 504 580 39,000  Level Kansas City Center
12:59PM 39.4253 -95.1025 84° East 503 579 39,000  Level Kansas City Center
01:00PM 39.4403 -94.9161 84° East 505 581 39,000  Level Kansas City Center
01:01PM 39.4539 -94.7439 84° East 500 575 39,000  Level Kansas City Center
01:02PM 39.4675 -94.5728 84° East 499 574 39,000  Level Kansas City Center
01:03PM 39.4836 -94.3744 84° East 496 571 39,000  Level Kansas City Center
01:05PM 39.4969 -94.2033 84° East 498 573 39,000  Level Kansas City Center
01:06PM 39.5117 -94.0050 84° East 497 572 39,000  Level Kansas City Center
01:07PM 39.5294 -93.8350 82° East 496 571 39,000  Level Kansas City Center
01:08PM 39.5483 -93.6600 82° East 500 575 39,000  Level Kansas City Center
01:09PM 39.5675 -93.4503 83° East 495 570 39,000  Level Kansas City Center
01:10PM 39.5828 -93.2775 83° East 491 565 39,000  Level Kansas City Center
01:11PM 39.5967 -93.1036 84° East 491 565 39,000  Level Kansas City Center
01:12PM 39.6108 -92.9278 84° East 495 570 39,000  Level Kansas City Center
01:13PM 39.6261 -92.7553 83° East 492 566 39,000  Level Kansas City Center
01:14PM 39.6442 -92.5483 83° East 489 563 39,000  Level Kansas City Center
01:15PM 39.6578 -92.3728 84° East 492 566 39,000  Level Kansas City Center
01:16PM 39.6714 -92.1994 84° East 492 566 39,000  Level Kansas City Center
01:17PM 39.6853 -92.0258 84° East 491 565 39,000  Level Kansas City Center
01:18PM 39.7017 -91.8142 84° East 495 570 39,000  Level Kansas City Center
01:19PM 39.7150 -91.6381 84° East 495 570 39,000  Level Kansas City Center
01:20PM 39.7275 -91.4606 85° East 497 572 39,000  Level Kansas City Center
01:21PM 39.7417 -91.2669 85° East 497 572 39,000  Level Kansas City Center
01:22PM 39.7542 -91.0875 85° East 498 573 39,000  Level Kansas City Center
01:23PM 39.7658 -90.9200 85° East 498 573 39,000  Level Kansas City Center
01:24PM 39.7800 -90.7064 85° East 496 571 39,000  Level Kansas City Center
01:25PM 39.7919 -90.5297 85° East 495 570 39,000  Level Kansas City Center
01:26PM 39.8031 -90.3531 85° East 493 567 39,000  Level Kansas City Center
01:27PM 39.8144 -90.1781 85° East 490 564 39,000  Level Kansas City Center
01:28PM 39.8247 -90.0008 86° East 492 566 39,000  Level Kansas City Center
01:29PM 39.8353 -89.8242 85° East 493 567 39,000  Level Kansas City Center
01:30PM 39.8650 -89.6172 79° East 487 560 39,000  Level Kansas City Center
01:31PM 39.9100 -89.4533 70° East 484 557 39,000  Level Kansas City Center
01:32PM 39.9539 -89.2886 71° East 483 556 39,000  Level Kansas City Center
01:33PM 39.9994 -89.1267 70° East 481 554 39,000  Level Kansas City Center
01:35PM 40.0436 -88.9642 70° East 479 551 39,000  Level Kansas City Center
01:36PM 40.0639 -88.7556 83° East 487 560 39,000  Level Kansas City Center
01:37PM 40.0692 -88.5811 88° East 485 558 39,000  Level Kansas City Center
01:38PM 40.0739 -88.4047 88° East 486 559 39,000  Level Kansas City Center
01:39PM 40.0775 -88.2272 88° East 488 562 39,000  Level Kansas City Center
01:40PM 40.0811 -88.0489 88° East 491 565 39,000  Level Kansas City Center
01:41PM 40.0858 -87.8686 88° East 495 570 39,000  Level Kansas City Center
01:42PM 40.0894 -87.6822 88° East 494 568 39,000  Level Kansas City Center
01:43PM 40.0928 -87.4561 89° East 491 565 39,000  Level Chicago Center
01:44PM 40.0958 -87.2803 89° East 489 563 39,000  Level Chicago Center
01:45PM 40.0981 -87.0789 89° East 486 559 39,000  Level Indianapolis Center
01:46PM 40.0994 -86.9042 89° East 481 554 39,000  Level Indianapolis Center
01:47PM 40.1014 -86.7294 89° East 479 551 39,000  Level Indianapolis Center
01:48PM 40.1036 -86.5558 89° East 477 549 39,000  Level Indianapolis Center
01:49PM 40.1047 -86.3814 89° East 477 549 39,000  Level Indianapolis Center
01:51PM 40.1083 -86.0186 89° East 472 543 39,000  Level Chicago Center
01:52PM 40.1086 -85.8467 90° East 476 548 39,100 480 Climbing Indianapolis Center
01:53PM 40.1081 -85.6700 90° East 481 554 40,000 420 Climbing Indianapolis Center
01:54PM 40.1086 -85.4947 90° East 480 552 40,000  Level Indianapolis Center
01:55PM 40.1083 -85.3189 90° East 479 551 40,000  Level Indianapolis Center
01:56PM 40.1069 -85.1425 91° East 481 554 40,000  Level Indianapolis Center
01:57PM 40.1072 -84.9667 90° East 480 552 40,000  Level Indianapolis Center
01:58PM 40.1075 -84.7908 90° East 480 552 40,000  Level Indianapolis Center
01:59PM 40.1056 -84.5861 91° East 480 552 40,000  Level Indianapolis Center
02:00PM 40.1042 -84.4092 91° East 482 555 40,000  Level Indianapolis Center
02:01PM 40.1019 -84.2303 91° East 486 559 40,000  Level Indianapolis Center
02:02PM 40.1006 -84.0514 91° East 487 560 40,000  Level Indianapolis Center
02:03PM 40.0986 -83.8733 91° East 486 559 40,000  Level Indianapolis Center
02:04PM 40.0964 -83.6944 91° East 484 557 40,000  Level Indianapolis Center
02:06PM 40.0933 -83.5164 91° East 481 554 40,000  Level Indianapolis Center
02:07PM 40.0894 -83.3378 92° East 482 555 40,000  Level Indianapolis Center
02:08PM 40.0856 -83.1597 92° East 482 555 40,000  Level Indianapolis Center
02:09PM 40.0831 -82.9819 91° East 482 555 40,000  Level Indianapolis Center
02:10PM 40.0794 -82.8064 91° East 481 554 40,000  Level Indianapolis Center
02:11PM 40.0750 -82.6300 92° East 481 554 40,000 -180 Level Indianapolis Center
02:12PM 40.0703 -82.4542 92° East 481 554 39,700 -540 Descending Indianapolis Center
02:13PM 40.0653 -82.2492 92° East 480 552 39,000 -360 Descending Indianapolis Center
02:14PM 40.0597 -82.0711 92° East 485 558 39,000  Level Indianapolis Center
02:15PM 40.0542 -81.8942 92° East 486 559 39,000  Level Indianapolis Center
02:16PM 40.0500 -81.7339 92° East 485 558 39,000  Level Indianapolis Center
02:17PM 40.0422 -81.5269 93° East 487 560 39,000  Level Indianapolis Center
02:18PM 40.0369 -81.3494 92° East 486 559 39,000  Level Indianapolis Center
02:19PM 40.0297 -81.1728 93° East 486 559 39,000  Level Indianapolis Center
02:20PM 40.0306 -81.0739 89° East 478 550 39,000  Level Cleveland Center
02:21PM 40.0208 -80.9003 94° East 478 550 39,000  Level Cleveland Center
02:22PM 39.9983 -80.7078 99° East 478 550 39,000 -420 Level Cleveland Center
02:23PM 39.9650 -80.5425 105° East 478 550 38,200 -900 Descending Cleveland Center
02:24PM 39.9314 -80.3747 105° East 478 550 37,200 -600 Descending Cleveland Center
02:25PM 39.8997 -80.2150 104° East 472 543 37,000 -120 Descending Cleveland Center
02:26PM 39.8658 -80.0531 105° East 467 537 37,000 -1,200 Level Cleveland Center
02:28PM 39.7914 -79.7044 105° East 456 525 33,100 -1,800 Descending Washington Center
02:29PM 39.7611 -79.5542 105° East 445 512 31,100 -2,040 Descending Washington Center
02:30PM 39.7306 -79.4067 105° East 434 499 29,100 -1,920 Descending Washington Center
02:31PM 39.7014 -79.2650 105° East 422 486 27,300 -1,800 Descending Washington Center
02:32PM 39.6703 -79.1286 106° East 407 468 25,500 -1,200 Descending Washington Center
02:33PM 39.6428 -78.9950 105° East 386 444 25,000 -1,200 Descending Washington Center
02:34PM 39.6075 -78.8400 106° East 392 451 23,100 -1,680 Descending Washington Center
02:35PM 39.5775 -78.7067 106° East 386 444 21,700 -1,800 Descending Washington Center
02:36PM 39.5475 -78.5761 107° East 381 438 19,500 -1,800 Descending Washington Center
02:37PM 39.5214 -78.4514 105° East 376 433 18,100 -1,680 Descending Washington Center
02:38PM 39.4931 -78.3264 106° East 370 426 16,200 -1,560 Descending Washington Center
02:39PM 39.4644 -78.2072 107° East 360 414 15,000 -600 Descending Washington Center
02:40PM 39.4378 -78.0878 106° East 349 402 15,000  Level Washington Center
02:41PM 39.4339 -77.9669 92° East 338 389 15,000  Level Washington Center
02:42PM 39.4364 -77.8461 88° East 333 383 15,000  Level Washington Center
02:43PM 39.4386 -77.7253 89° East 328 377 15,000 -600 Level Washington Center
02:44PM 39.4406 -77.6069 89° East 328 377 13,900 -1,380 Descending Washington Center
02:45PM 39.4425 -77.4914 89° East 328 377 12,300 -1,500 Descending Washington Center
02:46PM 39.4442 -77.3814 89° East 323 372 11,000 -840 Descending Washington Center
02:46PM 39.4500 -77.3167 83° East 299 344 11,000 -180 Level Potomac TRACON
02:47PM 39.4667 -77.2167 78° East 297 342 10,800 -840 Descending Potomac TRACON
02:48PM 39.4833 -77.1000 79° East 292 336 9,400 -1,440 Descending Potomac TRACON
02:49PM 39.5000 -77.0000 78° East 284 327 8,000 -1,320 Descending Potomac TRACON
02:50PM 39.5167 -76.9167 75° East 269 310 6,800 -1,380 Descending Potomac TRACON
02:51PM 39.4667 -76.8667 142° Southeast 265 305 5,300 -1,440 Descending Potomac TRACON
02:52PM 39.3833 -76.8667 180° South 257 296 4,000 -720 Descending Potomac TRACON
02:53PM 39.3167 -76.8667 180° South 238 274 3,900 -600 Descending Potomac TRACON
02:54PM 39.2500 -76.8667 180° South 236 272 2,800 -960 Descending Potomac TRACON
02:55PM 39.2000 -76.8333 153° Southeast 208 239 2,000 -720 Descending Potomac TRACON
02:56PM 39.1833 -76.7833 113° Southeast 163 188 1,500 -600 Descending Potomac TRACON
02:57PM 39.1833 -76.7333 90° East 131 151 800 -660 Descending Potomac TRACON
02:59PM 39.1667 -76.6667 142° Southeast  Level FlightAware Approximate
03:06PM 39.1754 -76.6683 142° Southeast  Level Estimated
03:07PM 39.1754 -76.6683 142° Southeast  Level Estimated
03:08PM 39.1754 -76.6683 142° Southeast  Level Estimated
03:09PM 39.1754 -76.6683 142° Southeast  Level Estimated